Terminal Aerodrome Forecast
Issued by NWS Charleston, WV

Current Version | Previous Version | Graphics & Text | Print | Product List | Glossary On
Versions: 1 2 3 4 5 6 7 8 9 10 11 12 13 14 15 16 17 18 19 20 21 22
109
FTUS41 KRLX 110900 AAA
TAFBKW
TAF AMD
KBKW 110900Z 1109/1206 29011G17KT 6SM -SN OVC030
     FM111000 30010G17KT 5SM -SN OVC028
     FM111700 30010G17KT P6SM BKN035
     FM111900 30010G15KT P6SM SCT040
     FM120100 31006KT P6SM BKN250=

USA.gov is the U.S. government's official web portal to all federal, state and local government web resources and services.